Naval Communications Area Ma, Virginia
Current Conditions -  °F | °C
As of 2:05 AM on Monday 24 Nov 2014 (Local Time) from KNGU Reporting Station
Light Rain Light Rain  
Wind Chill: 68°   Ceiling: 1800
Heat Index: 68°   Visibility: 6mi
Dew Point: 64°   Wind: 13mph
Humidity: 87%   Direction: 180°S
Pressure: 29.79"   Gusts: 23mph
Location:  36.9343°N, 76.284°W
Report Text: KNGU 240705Z 18011G20KT 6SM -RA BR FEW007 BKN018 OVC026 20/18 A2979 RMK AO2 P0000 T02000178 $
Loading
Personal Weather Stations






























Interactive Weather Map New forecast layout! Learn more

10-Day Weather Forecast

Advertisements
Track Severe Weather on mobile